sensor_id;sensor_type;location;lat;lon;timestamp;pressure;altitude;pressure_sealevel;temperature;humidity
80382;BME280;69692;55.820;37.490;2023-05-23T00:02:08;100164.13;;;14.28;74.13
80382;BME280;69692;55.820;37.490;2023-05-23T00:04:34;100157.31;;;14.25;74.28
80382;BME280;69692;55.820;37.490;2023-05-23T00:07:03;100147.56;;;14.24;74.02
80382;BME280;69692;55.820;37.490;2023-05-23T00:09:29;100160.84;;;14.26;74.17
80382;BME280;69692;55.820;37.490;2023-05-23T00:11:55;100154.03;;;14.23;74.52
80382;BME280;69692;55.820;37.490;2023-05-23T00:14:20;100158.63;;;14.23;74.49
80382;BME280;69692;55.820;37.490;2023-05-23T00:16:46;100156.97;;;14.22;74.21
80382;BME280;69692;55.820;37.490;2023-05-23T00:19:14;100154.03;;;14.23;74.94
80382;BME280;69692;55.820;37.490;2023-05-23T00:21:41;100156.16;;;14.21;74.63
80382;BME280;69692;55.820;37.490;2023-05-23T00:24:08;100157.81;;;14.22;74.57
80382;BME280;69692;55.820;37.490;2023-05-23T00:26:35;100157.22;;;14.20;74.86
80382;BME280;69692;55.820;37.490;2023-05-23T00:29:01;100163.72;;;14.19;74.77
80382;BME280;69692;55.820;37.490;2023-05-23T00:31:27;100154.19;;;14.17;74.51
80382;BME280;69692;55.820;37.490;2023-05-23T00:33:52;100159.03;;;14.15;74.85
80382;BME280;69692;55.820;37.490;2023-05-23T00:36:18;100155.13;;;14.11;74.81
80382;BME280;69692;55.820;37.490;2023-05-23T00:38:44;100159.25;;;14.13;74.60
80382;BME280;69692;55.820;37.490;2023-05-23T00:41:14;100155.00;;;14.17;75.08
80382;BME280;69692;55.820;37.490;2023-05-23T00:43:40;100155.34;;;14.21;74.74
80382;BME280;69692;55.820;37.490;2023-05-23T00:46:06;100153.94;;;14.18;74.78
80382;BME280;69692;55.820;37.490;2023-05-23T00:48:33;100160.66;;;14.16;74.73
80382;BME280;69692;55.820;37.490;2023-05-23T00:50:59;100155.50;;;14.14;75.12
80382;BME280;69692;55.820;37.490;2023-05-23T00:53:25;100155.47;;;14.43;79.24
80382;BME280;69692;55.820;37.490;2023-05-23T00:55:51;100145.34;;;16.43;73.13
80382;BME280;69692;55.820;37.490;2023-05-23T00:58:18;100148.34;;;16.20;67.63
80382;BME280;69692;55.820;37.490;2023-05-23T01:00:44;100139.16;;;15.77;68.32
80382;BME280;69692;55.820;37.490;2023-05-23T01:03:10;100150.28;;;15.37;69.91
80382;BME280;69692;55.820;37.490;2023-05-23T01:05:45;100145.22;;;15.07;71.05
80382;BME280;69692;55.820;37.490;2023-05-23T01:08:11;100141.34;;;14.86;71.78
80382;BME280;69692;55.820;37.490;2023-05-23T01:10:37;100150.28;;;14.70;71.89
80382;BME280;69692;55.820;37.490;2023-05-23T01:16:03;100138.91;;;14.39;72.68
80382;BME280;69692;55.820;37.490;2023-05-23T01:18:42;100132.00;;;14.31;72.78
80382;BME280;69692;55.820;37.490;2023-05-23T01:21:17;100135.19;;;14.28;73.32
80382;BME280;69692;55.820;37.490;2023-05-23T01:29:25;100145.19;;;14.28;72.93
80382;BME280;69692;55.820;37.490;2023-05-23T01:31:56;100143.31;;;14.28;73.08
80382;BME280;69692;55.820;37.490;2023-05-23T01:34:22;100137.22;;;14.21;73.31
80382;BME280;69692;55.820;37.490;2023-05-23T01:36:49;100132.28;;;14.18;73.24
80382;BME280;69692;55.820;37.490;2023-05-23T01:39:18;100133.94;;;14.19;73.70
80382;BME280;69692;55.820;37.490;2023-05-23T01:41:44;100134.50;;;14.21;72.77
80382;BME280;69692;55.820;37.490;2023-05-23T01:44:10;100136.41;;;14.21;72.97
80382;BME280;69692;55.820;37.490;2023-05-23T01:46:37;100133.38;;;14.17;73.36
80382;BME280;69692;55.820;37.490;2023-05-23T01:49:05;100136.06;;;14.17;73.29
80382;BME280;69692;55.820;37.490;2023-05-23T01:51:32;100133.13;;;14.19;72.72
80382;BME280;69692;55.820;37.490;2023-05-23T01:53:59;100148.63;;;14.23;72.21
80382;BME280;69692;55.820;37.490;2023-05-23T01:56:28;100160.25;;;14.24;71.10
80382;BME280;69692;55.820;37.490;2023-05-23T01:58:55;100137.31;;;14.26;72.32
80382;BME280;69692;55.820;37.490;2023-05-23T02:01:21;100123.69;;;14.21;72.71
80382;BME280;69692;55.820;37.490;2023-05-23T02:03:46;100135.66;;;14.25;72.05
80382;BME280;69692;55.820;37.490;2023-05-23T02:06:12;100133.19;;;14.24;72.33
80382;BME280;69692;55.820;37.490;2023-05-23T02:08:38;100131.06;;;14.26;71.51
80382;BME280;69692;55.820;37.490;2023-05-23T02:11:04;100128.13;;;14.27;71.78
80382;BME280;69692;55.820;37.490;2023-05-23T02:13:30;100119.53;;;14.30;71.72
80382;BME280;69692;55.820;37.490;2023-05-23T02:15:55;100125.28;;;14.34;72.25
80382;BME280;69692;55.820;37.490;2023-05-23T02:18:22;100131.00;;;14.38;70.65
80382;BME280;69692;55.820;37.490;2023-05-23T02:21:10;100121.25;;;14.37;71.00
80382;BME280;69692;55.820;37.490;2023-05-23T02:23:36;100118.63;;;14.42;69.90
80382;BME280;69692;55.820;37.490;2023-05-23T02:26:02;100115.91;;;14.42;70.33
80382;BME280;69692;55.820;37.490;2023-05-23T02:28:28;100117.38;;;14.44;69.82
80382;BME280;69692;55.820;37.490;2023-05-23T02:30:53;100117.00;;;14.41;70.18
80382;BME280;69692;55.820;37.490;2023-05-23T02:33:19;100126.06;;;14.46;68.80
80382;BME280;69692;55.820;37.490;2023-05-23T02:35:45;100120.41;;;14.48;69.47
80382;BME280;69692;55.820;37.490;2023-05-23T02:38:10;100112.03;;;14.49;68.86
80382;BME280;69692;55.820;37.490;2023-05-23T02:40:39;100108.00;;;14.52;68.80
80382;BME280;69692;55.820;37.490;2023-05-23T02:43:05;100113.75;;;14.55;69.06
80382;BME280;69692;55.820;37.490;2023-05-23T02:45:30;100111.28;;;14.54;68.86
80382;BME280;69692;55.820;37.490;2023-05-23T02:47:57;100105.38;;;14.57;68.98
80382;BME280;69692;55.820;37.490;2023-05-23T02:50:24;100099.41;;;14.55;68.74
80382;BME280;69692;55.820;37.490;2023-05-23T02:52:49;100120.34;;;14.59;67.52
80382;BME280;69692;55.820;37.490;2023-05-23T02:55:16;100106.88;;;14.65;67.07
80382;BME280;69692;55.820;37.490;2023-05-23T02:57:45;100103.44;;;14.69;66.76
80382;BME280;69692;55.820;37.490;2023-05-23T03:00:12;100110.00;;;14.73;67.31
80382;BME280;69692;55.820;37.490;2023-05-23T03:02:39;100103.53;;;14.74;67.38
80382;BME280;69692;55.820;37.490;2023-05-23T03:05:05;100106.22;;;14.74;65.57
80382;BME280;69692;55.820;37.490;2023-05-23T03:07:31;100111.16;;;14.77;65.34
80382;BME280;69692;55.820;37.490;2023-05-23T03:10:01;100115.81;;;14.82;65.37
80382;BME280;69692;55.820;37.490;2023-05-23T03:12:27;100113.94;;;14.82;65.61
80382;BME280;69692;55.820;37.490;2023-05-23T03:14:54;100124.28;;;14.85;64.89
80382;BME280;69692;55.820;37.490;2023-05-23T03:17:20;100113.44;;;14.85;64.79
80382;BME280;69692;55.820;37.490;2023-05-23T03:19:46;100112.63;;;14.85;64.52
80382;BME280;69692;55.820;37.490;2023-05-23T03:22:12;100105.06;;;14.87;64.84
80382;BME280;69692;55.820;37.490;2023-05-23T03:24:37;100120.03;;;14.89;64.65
80382;BME280;69692;55.820;37.490;2023-05-23T03:27:03;100115.75;;;14.94;64.19
80382;BME280;69692;55.820;37.490;2023-05-23T03:29:29;100125.56;;;15.00;64.27
80382;BME280;69692;55.820;37.490;2023-05-23T03:31:56;100119.69;;;15.03;64.00
80382;BME280;69692;55.820;37.490;2023-05-23T03:34:21;100115.41;;;15.07;63.90
80382;BME280;69692;55.820;37.490;2023-05-23T03:36:48;100111.13;;;15.11;64.07
80382;BME280;69692;55.820;37.490;2023-05-23T03:39:14;100106.53;;;15.11;64.70
80382;BME280;69692;55.820;37.490;2023-05-23T03:41:40;100108.72;;;15.14;63.67
80382;BME280;69692;55.820;37.490;2023-05-23T03:44:05;100114.50;;;15.18;63.01
80382;BME280;69692;55.820;37.490;2023-05-23T03:46:33;100109.94;;;15.24;63.00
80382;BME280;69692;55.820;37.490;2023-05-23T03:48:58;100118.97;;;15.29;63.68
80382;BME280;69692;55.820;37.490;2023-05-23T03:51:24;100105.75;;;15.33;63.26
80382;BME280;69692;55.820;37.490;2023-05-23T03:53:50;100106.63;;;15.38;63.56
80382;BME280;69692;55.820;37.490;2023-05-23T03:56:16;100105.63;;;15.44;63.81
80382;BME280;69692;55.820;37.490;2023-05-23T03:58:42;100099.47;;;15.49;63.97
80382;BME280;69692;55.820;37.490;2023-05-23T04:01:12;100103.88;;;15.55;63.16
80382;BME280;69692;55.820;37.490;2023-05-23T04:03:38;100095.56;;;15.62;63.25
80382;BME280;69692;55.820;37.490;2023-05-23T04:06:04;100096.47;;;15.67;62.30
80382;BME280;69692;55.820;37.490;2023-05-23T04:08:31;100095.69;;;15.72;63.32
80382;BME280;69692;55.820;37.490;2023-05-23T04:11:01;100091.97;;;15.78;63.01
80382;BME280;69692;55.820;37.490;2023-05-23T04:13:29;100095.25;;;15.80;63.67
80382;BME280;69692;55.820;37.490;2023-05-23T04:15:56;100101.00;;;15.84;63.47
80382;BME280;69692;55.820;37.490;2023-05-23T04:18:22;100097.50;;;15.88;62.55
80382;BME280;69692;55.820;37.490;2023-05-23T04:20:48;100087.22;;;15.90;62.03
80382;BME280;69692;55.820;37.490;2023-05-23T04:23:14;100097.81;;;15.92;62.67
80382;BME280;69692;55.820;37.490;2023-05-23T04:25:43;100093.78;;;15.94;62.50
80382;BME280;69692;55.820;37.490;2023-05-23T04:28:29;100097.00;;;15.91;62.29
80382;BME280;69692;55.820;37.490;2023-05-23T04:30:56;100097.25;;;15.90;62.41
80382;BME280;69692;55.820;37.490;2023-05-23T04:33:26;100098.06;;;15.90;62.37
80382;BME280;69692;55.820;37.490;2023-05-23T04:35:53;100097.59;;;15.93;62.94
80382;BME280;69692;55.820;37.490;2023-05-23T04:38:19;100094.28;;;15.91;63.01
80382;BME280;69692;55.820;37.490;2023-05-23T04:40:47;100101.69;;;15.96;62.92
80382;BME280;69692;55.820;37.490;2023-05-23T04:43:33;100094.09;;;15.98;62.63
80382;BME280;69692;55.820;37.490;2023-05-23T04:46:31;100087.16;;;16.07;62.90
80382;BME280;69692;55.820;37.490;2023-05-23T04:49:24;100089.09;;;16.12;61.52
80382;BME280;69692;55.820;37.490;2023-05-23T04:51:51;100087.75;;;16.14;61.66
80382;BME280;69692;55.820;37.490;2023-05-23T04:54:24;100087.31;;;16.22;61.38
80382;BME280;69692;55.820;37.490;2023-05-23T04:56:52;100100.44;;;16.35;61.56
80382;BME280;69692;55.820;37.490;2023-05-23T04:59:19;100095.34;;;16.39;61.85
80382;BME280;69692;55.820;37.490;2023-05-23T05:01:45;100092.44;;;16.51;62.72
80382;BME280;69692;55.820;37.490;2023-05-23T05:04:11;100101.50;;;16.61;61.31
80382;BME280;69692;55.820;37.490;2023-05-23T05:06:39;100095.63;;;16.69;61.62
80382;BME280;69692;55.820;37.490;2023-05-23T05:09:07;100091.59;;;16.77;61.17
80382;BME280;69692;55.820;37.490;2023-05-23T05:11:34;100104.44;;;16.82;60.80
80382;BME280;69692;55.820;37.490;2023-05-23T05:14:00;100094.66;;;16.86;60.44
80382;BME280;69692;55.820;37.490;2023-05-23T05:16:26;100097.13;;;16.87;60.78
80382;BME280;69692;55.820;37.490;2023-05-23T05:18:52;100116.69;;;16.89;59.99
80382;BME280;69692;55.820;37.490;2023-05-23T05:21:19;100115.34;;;16.92;60.53
80382;BME280;69692;55.820;37.490;2023-05-23T05:23:44;100111.59;;;16.98;60.07
80382;BME280;69692;55.820;37.490;2023-05-23T05:26:11;100137.72;;;16.99;59.48
80382;BME280;69692;55.820;37.490;2023-05-23T05:28:37;100117.63;;;17.05;60.18
80382;BME280;69692;55.820;37.490;2023-05-23T05:31:03;100123.34;;;17.09;59.80
80382;BME280;69692;55.820;37.490;2023-05-23T05:33:32;100126.13;;;17.14;59.84
80382;BME280;69692;55.820;37.490;2023-05-23T05:36:11;100125.03;;;17.15;59.23
80382;BME280;69692;55.820;37.490;2023-05-23T05:38:37;100126.97;;;17.19;59.03
80382;BME280;69692;55.820;37.490;2023-05-23T05:41:03;100126.44;;;17.22;58.67
80382;BME280;69692;55.820;37.490;2023-05-23T05:43:33;100121.00;;;17.22;58.28
80382;BME280;69692;55.820;37.490;2023-05-23T05:45:59;100122.13;;;17.26;57.16
80382;BME280;69692;55.820;37.490;2023-05-23T05:48:25;100111.81;;;17.28;56.52
80382;BME280;69692;55.820;37.490;2023-05-23T05:50:53;100115.06;;;17.31;56.74
80382;BME280;69692;55.820;37.490;2023-05-23T05:53:19;100115.63;;;17.33;57.33
80382;BME280;69692;55.820;37.490;2023-05-23T05:55:44;100108.56;;;17.32;56.64
80382;BME280;69692;55.820;37.490;2023-05-23T05:58:10;100108.81;;;17.30;56.36
80382;BME280;69692;55.820;37.490;2023-05-23T06:00:51;100107.44;;;17.27;56.63
80382;BME280;69692;55.820;37.490;2023-05-23T06:03:19;100112.63;;;17.29;56.68
80382;BME280;69692;55.820;37.490;2023-05-23T06:05:51;100114.00;;;17.37;56.28
80382;BME280;69692;55.820;37.490;2023-05-23T06:08:17;100103.47;;;17.45;56.20
80382;BME280;69692;55.820;37.490;2023-05-23T06:10:43;100109.78;;;17.56;56.16
80382;BME280;69692;55.820;37.490;2023-05-23T06:13:09;100109.25;;;17.64;56.33
80382;BME280;69692;55.820;37.490;2023-05-23T06:15:36;100104.16;;;17.73;56.07
80382;BME280;69692;55.820;37.490;2023-05-23T06:18:02;100103.34;;;17.77;56.18
80382;BME280;69692;55.820;37.490;2023-05-23T06:20:29;100100.63;;;17.82;56.02
80382;BME280;69692;55.820;37.490;2023-05-23T06:22:58;100094.09;;;17.83;55.94
80382;BME280;69692;55.820;37.490;2023-05-23T06:25:26;100084.63;;;17.86;56.38
80382;BME280;69692;55.820;37.490;2023-05-23T06:27:52;100087.63;;;17.95;56.38
80382;BME280;69692;55.820;37.490;2023-05-23T06:30:17;100075.63;;;17.96;56.47
80382;BME280;69692;55.820;37.490;2023-05-23T06:32:44;100087.09;;;18.03;55.85
80382;BME280;69692;55.820;37.490;2023-05-23T06:35:10;100083.84;;;18.06;55.98
80382;BME280;69692;55.820;37.490;2023-05-23T06:37:37;100079.22;;;18.11;55.55
80382;BME280;69692;55.820;37.490;2023-05-23T06:40:04;100077.06;;;18.18;56.19
80382;BME280;69692;55.820;37.490;2023-05-23T06:42:30;100078.69;;;18.25;56.47
80382;BME280;69692;55.820;37.490;2023-05-23T06:45:09;100067.25;;;18.28;56.37
80382;BME280;69692;55.820;37.490;2023-05-23T06:47:36;100068.63;;;18.35;56.00
80382;BME280;69692;55.820;37.490;2023-05-23T06:50:02;100069.19;;;18.47;55.39
80382;BME280;69692;55.820;37.490;2023-05-23T06:52:30;100065.63;;;18.57;55.14
80382;BME280;69692;55.820;37.490;2023-05-23T06:54:56;100054.47;;;18.79;54.90
80382;BME280;69692;55.820;37.490;2023-05-23T06:57:23;100051.16;;;19.02;54.76
80382;BME280;69692;55.820;37.490;2023-05-23T06:59:50;100044.84;;;19.22;53.66
80382;BME280;69692;55.820;37.490;2023-05-23T07:02:15;100045.03;;;19.41;53.94
80382;BME280;69692;55.820;37.490;2023-05-23T07:04:42;100048.56;;;19.57;53.36
80382;BME280;69692;55.820;37.490;2023-05-23T07:07:14;100039.22;;;19.63;52.47
80382;BME280;69692;55.820;37.490;2023-05-23T07:09:42;100035.16;;;19.60;52.15
80382;BME280;69692;55.820;37.490;2023-05-23T07:12:12;100032.44;;;19.60;52.04
80382;BME280;69692;55.820;37.490;2023-05-23T07:14:41;100035.44;;;19.64;52.49
80382;BME280;69692;55.820;37.490;2023-05-23T07:17:08;100034.25;;;19.75;52.03
80382;BME280;69692;55.820;37.490;2023-05-23T07:19:34;100025.97;;;19.95;51.27
80382;BME280;69692;55.820;37.490;2023-05-23T07:22:00;100027.78;;;20.05;51.41
80382;BME280;69692;55.820;37.490;2023-05-23T07:24:26;100027.22;;;20.13;50.42
80382;BME280;69692;55.820;37.490;2023-05-23T07:26:54;100036.97;;;20.24;50.56
80382;BME280;69692;55.820;37.490;2023-05-23T07:29:21;100028.09;;;20.38;50.83
80382;BME280;69692;55.820;37.490;2023-05-23T07:31:49;100024.84;;;20.36;49.62
80382;BME280;69692;55.820;37.490;2023-05-23T07:34:16;100027.00;;;20.44;50.30
80382;BME280;69692;55.820;37.490;2023-05-23T07:36:49;100033.47;;;20.53;50.07
80382;BME280;69692;55.820;37.490;2023-05-23T07:39:16;100030.88;;;20.67;49.88
80382;BME280;69692;55.820;37.490;2023-05-23T07:41:47;100020.34;;;20.84;49.75
80382;BME280;69692;55.820;37.490;2023-05-23T07:44:13;100025.91;;;20.98;49.43
80382;BME280;69692;55.820;37.490;2023-05-23T07:46:39;100030.25;;;21.04;47.92
80382;BME280;69692;55.820;37.490;2023-05-23T07:49:05;100032.47;;;21.02;48.21
80382;BME280;69692;55.820;37.490;2023-05-23T07:51:31;100028.25;;;21.09;48.18
80382;BME280;69692;55.820;37.490;2023-05-23T07:53:58;100034.44;;;21.20;48.32
80382;BME280;69692;55.820;37.490;2023-05-23T07:56:23;100031.09;;;21.28;48.89
80382;BME280;69692;55.820;37.490;2023-05-23T07:58:50;100034.66;;;21.24;48.08
80382;BME280;69692;55.820;37.490;2023-05-23T08:01:16;100029.50;;;21.22;47.16
80382;BME280;69692;55.820;37.490;2023-05-23T08:03:51;100034.94;;;21.27;47.03
80382;BME280;69692;55.820;37.490;2023-05-23T08:06:24;100031.34;;;21.32;47.48
80382;BME280;69692;55.820;37.490;2023-05-23T08:08:50;100036.00;;;21.31;47.90
80382;BME280;69692;55.820;37.490;2023-05-23T08:11:16;100040.66;;;21.31;47.14
80382;BME280;69692;55.820;37.490;2023-05-23T08:13:45;100042.81;;;21.34;48.37
80382;BME280;69692;55.820;37.490;2023-05-23T08:16:44;100030.97;;;21.38;47.70
80382;BME280;69692;55.820;37.490;2023-05-23T08:19:16;100031.13;;;21.23;48.84
80382;BME280;69692;55.820;37.490;2023-05-23T08:21:42;100039.06;;;21.25;48.45
80382;BME280;69692;55.820;37.490;2023-05-23T08:24:08;100031.66;;;21.25;49.25
80382;BME280;69692;55.820;37.490;2023-05-23T08:26:35;100039.31;;;21.23;49.03
80382;BME280;69692;55.820;37.490;2023-05-23T08:29:04;100035.56;;;21.19;50.17
80382;BME280;69692;55.820;37.490;2023-05-23T08:31:31;100037.09;;;21.30;49.97
80382;BME280;69692;55.820;37.490;2023-05-23T08:33:57;100028.31;;;21.33;49.22
80382;BME280;69692;55.820;37.490;2023-05-23T08:36:23;100033.69;;;21.38;49.41
80382;BME280;69692;55.820;37.490;2023-05-23T08:38:50;100030.38;;;21.41;49.52
80382;BME280;69692;55.820;37.490;2023-05-23T08:41:32;100024.91;;;21.41;49.95
80382;BME280;69692;55.820;37.490;2023-05-23T08:44:03;100028.94;;;21.49;50.35
80382;BME280;69692;55.820;37.490;2023-05-23T08:46:33;100023.44;;;21.49;48.96
80382;BME280;69692;55.820;37.490;2023-05-23T08:49:04;100026.53;;;21.42;49.54
80382;BME280;69692;55.820;37.490;2023-05-23T08:51:34;100025.28;;;21.35;50.08
80382;BME280;69692;55.820;37.490;2023-05-23T08:54:07;100028.06;;;21.30;50.16
80382;BME280;69692;55.820;37.490;2023-05-23T08:56:35;100022.16;;;21.41;51.00
80382;BME280;69692;55.820;37.490;2023-05-23T08:59:03;100022.56;;;21.54;50.69
80382;BME280;69692;55.820;37.490;2023-05-23T09:01:30;100019.69;;;21.64;50.11
80382;BME280;69692;55.820;37.490;2023-05-23T09:04:01;100015.41;;;21.58;50.83
80382;BME280;69692;55.820;37.490;2023-05-23T09:06:48;100021.25;;;21.70;51.51
80382;BME280;69692;55.820;37.490;2023-05-23T09:09:15;100015.84;;;21.65;50.03
80382;BME280;69692;55.820;37.490;2023-05-23T09:11:42;100020.72;;;21.68;51.34
80382;BME280;69692;55.820;37.490;2023-05-23T09:14:11;100026.00;;;21.83;51.39
80382;BME280;69692;55.820;37.490;2023-05-23T09:16:39;100023.03;;;21.80;50.90
80382;BME280;69692;55.820;37.490;2023-05-23T09:19:12;100023.03;;;21.61;51.16
80382;BME280;69692;55.820;37.490;2023-05-23T09:21:44;100024.78;;;21.52;51.91
80382;BME280;69692;55.820;37.490;2023-05-23T09:24:36;100023.66;;;21.53;51.73
80382;BME280;69692;55.820;37.490;2023-05-23T09:27:05;100042.88;;;21.29;52.83
80382;BME280;69692;55.820;37.490;2023-05-23T09:29:32;100038.34;;;21.14;52.58
80382;BME280;69692;55.820;37.490;2023-05-23T09:32:13;100044.94;;;21.13;52.60
80382;BME280;69692;55.820;37.490;2023-05-23T09:35:02;100043.63;;;21.34;52.74
80382;BME280;69692;55.820;37.490;2023-05-23T09:37:29;100037.16;;;21.68;52.29
80382;BME280;69692;55.820;37.490;2023-05-23T09:39:58;100042.31;;;22.12;51.29
80382;BME280;69692;55.820;37.490;2023-05-23T09:42:30;100050.44;;;21.98;51.23
80382;BME280;69692;55.820;37.490;2023-05-23T09:44:58;100046.94;;;21.74;51.56
80382;BME280;69692;55.820;37.490;2023-05-23T09:47:24;100048.50;;;21.61;52.29
80382;BME280;69692;55.820;37.490;2023-05-23T09:49:51;100044.06;;;21.41;52.98
80382;BME280;69692;55.820;37.490;2023-05-23T09:52:18;100044.25;;;21.50;52.85
80382;BME280;69692;55.820;37.490;2023-05-23T09:54:45;100052.19;;;21.70;52.88
80382;BME280;69692;55.820;37.490;2023-05-23T09:57:13;100060.44;;;21.47;52.38
80382;BME280;69692;55.820;37.490;2023-05-23T09:59:41;100065.66;;;21.19;52.76
80382;BME280;69692;55.820;37.490;2023-05-23T10:02:11;100049.09;;;21.05;53.94
80382;BME280;69692;55.820;37.490;2023-05-23T10:04:38;100067.97;;;20.78;54.17
80382;BME280;69692;55.820;37.490;2023-05-23T10:07:18;100065.44;;;20.52;55.49
80382;BME280;69692;55.820;37.490;2023-05-23T10:09:53;100067.38;;;20.52;56.64
80382;BME280;69692;55.820;37.490;2023-05-23T10:12:41;100069.63;;;20.45;57.91
80382;BME280;69692;55.820;37.490;2023-05-23T10:15:12;100063.19;;;20.25;58.62
80382;BME280;69692;55.820;37.490;2023-05-23T10:17:52;100060.47;;;20.20;58.49
80382;BME280;69692;55.820;37.490;2023-05-23T10:20:24;100065.47;;;20.08;58.68
80382;BME280;69692;55.820;37.490;2023-05-23T10:22:51;100070.50;;;19.96;59.74
80382;BME280;69692;55.820;37.490;2023-05-23T10:25:17;100071.38;;;19.81;59.94
80382;BME280;69692;55.820;37.490;2023-05-23T10:27:43;100081.53;;;19.71;60.21
80382;BME280;69692;55.820;37.490;2023-05-23T10:30:10;100072.88;;;19.43;61.07
80382;BME280;69692;55.820;37.490;2023-05-23T10:32:37;100076.47;;;19.28;61.98
80382;BME280;69692;55.820;37.490;2023-05-23T10:37:44;100081.41;;;19.16;61.99
80382;BME280;69692;55.820;37.490;2023-05-23T10:42:55;100080.88;;;19.09;62.54
80382;BME280;69692;55.820;37.490;2023-05-23T10:45:23;100082.25;;;19.06;63.21
80382;BME280;69692;55.820;37.490;2023-05-23T10:47:52;100082.78;;;19.03;63.65
80382;BME280;69692;55.820;37.490;2023-05-23T10:53:04;100079.00;;;18.94;64.07
80382;BME280;69692;55.820;37.490;2023-05-23T10:55:34;100075.19;;;18.90;63.90
80382;BME280;69692;55.820;37.490;2023-05-23T10:58:15;100085.53;;;18.88;65.22
80382;BME280;69692;55.820;37.490;2023-05-23T11:00:56;100079.56;;;18.81;66.38
80382;BME280;69692;55.820;37.490;2023-05-23T11:06:39;100084.19;;;18.70;67.30
80382;BME280;69692;55.820;37.490;2023-05-23T11:09:14;100086.91;;;18.60;68.70
80382;BME280;69692;55.820;37.490;2023-05-23T11:14:30;100087.72;;;18.45;69.78
80382;BME280;69692;55.820;37.490;2023-05-23T11:17:47;100085.53;;;18.32;71.58
80382;BME280;69692;55.820;37.490;2023-05-23T11:20:05;100078.69;;;18.25;72.58
80382;BME280;69692;55.820;37.490;2023-05-23T11:22:33;100085.50;;;18.22;72.44
80382;BME280;69692;55.820;37.490;2023-05-23T11:25:00;100084.97;;;18.20;73.00
80382;BME280;69692;55.820;37.490;2023-05-23T11:27:27;100086.84;;;18.09;73.27
80382;BME280;69692;55.820;37.490;2023-05-23T11:29:57;100085.19;;;18.03;74.26
80382;BME280;69692;55.820;37.490;2023-05-23T11:32:26;100075.38;;;17.97;75.29
80382;BME280;69692;55.820;37.490;2023-05-23T11:34:53;100075.09;;;17.88;74.83
80382;BME280;69692;55.820;37.490;2023-05-23T11:37:19;100087.84;;;17.83;74.84
80382;BME280;69692;55.820;37.490;2023-05-23T11:39:45;100091.91;;;17.75;75.54
80382;BME280;69692;55.820;37.490;2023-05-23T11:42:11;100099.22;;;17.70;74.39
80382;BME280;69692;55.820;37.490;2023-05-23T11:44:36;100101.09;;;17.64;75.35
80382;BME280;69692;55.820;37.490;2023-05-23T11:47:03;100097.81;;;17.62;75.56
80382;BME280;69692;55.820;37.490;2023-05-23T11:49:34;100103.81;;;17.59;75.74
80382;BME280;69692;55.820;37.490;2023-05-23T11:52:01;100099.13;;;17.54;76.30
80382;BME280;69692;55.820;37.490;2023-05-23T11:54:27;100095.31;;;17.50;77.30
80382;BME280;69692;55.820;37.490;2023-05-23T11:56:54;100096.13;;;17.51;76.56
80382;BME280;69692;55.820;37.490;2023-05-23T11:59:21;100085.25;;;17.51;76.69
80382;BME280;69692;55.820;37.490;2023-05-23T12:01:47;100086.88;;;17.52;76.63
80382;BME280;69692;55.820;37.490;2023-05-23T12:04:13;100090.41;;;17.52;76.91
80382;BME280;69692;55.820;37.490;2023-05-23T12:06:39;100095.31;;;17.50;76.48
80382;BME280;69692;55.820;37.490;2023-05-23T12:09:10;100090.69;;;17.51;76.63
80382;BME280;69692;55.820;37.490;2023-05-23T12:11:36;100083.59;;;17.50;76.73
80382;BME280;69692;55.820;37.490;2023-05-23T12:14:02;100087.69;;;17.52;77.53
80382;BME280;69692;55.820;37.490;2023-05-23T12:16:34;100091.00;;;17.59;77.16
80382;BME280;69692;55.820;37.490;2023-05-23T12:19:03;100088.03;;;17.66;77.51
80382;BME280;69692;55.820;37.490;2023-05-23T12:21:42;100081.84;;;17.71;77.75
80382;BME280;69692;55.820;37.490;2023-05-23T12:24:16;100075.31;;;17.77;77.14
80382;BME280;69692;55.820;37.490;2023-05-23T12:26:49;100073.97;;;17.84;77.44
80382;BME280;69692;55.820;37.490;2023-05-23T12:29:18;100076.19;;;17.93;77.02
80382;BME280;69692;55.820;37.490;2023-05-23T12:31:44;100070.22;;;18.01;76.98
80382;BME280;69692;55.820;37.490;2023-05-23T12:34:12;100065.88;;;18.10;76.57
80382;BME280;69692;55.820;37.490;2023-05-23T12:36:38;100067.78;;;18.14;76.60
80382;BME280;69692;55.820;37.490;2023-05-23T12:39:04;100062.06;;;18.11;76.17
80382;BME280;69692;55.820;37.490;2023-05-23T12:41:32;100059.34;;;18.21;75.92
80382;BME280;69692;55.820;37.490;2023-05-23T12:43:58;100060.72;;;18.39;75.54
80382;BME280;69692;55.820;37.490;2023-05-23T12:46:25;100056.94;;;18.45;74.94
80382;BME280;69692;55.820;37.490;2023-05-23T12:48:52;100055.00;;;18.40;73.29
80382;BME280;69692;55.820;37.490;2023-05-23T12:51:18;100055.81;;;18.36;73.07
80382;BME280;69692;55.820;37.490;2023-05-23T12:53:44;100051.47;;;18.35;72.56
80382;BME280;69692;55.820;37.490;2023-05-23T12:56:10;100050.91;;;18.38;72.84
80382;BME280;69692;55.820;37.490;2023-05-23T12:58:36;100043.56;;;18.43;72.61
80382;BME280;69692;55.820;37.490;2023-05-23T13:01:02;100045.72;;;18.57;73.21
80382;BME280;69692;55.820;37.490;2023-05-23T13:03:28;100042.50;;;18.65;73.02
80382;BME280;69692;55.820;37.490;2023-05-23T13:05:58;100040.03;;;18.73;73.71
80382;BME280;69692;55.820;37.490;2023-05-23T13:08:25;100041.66;;;18.85;72.97
80382;BME280;69692;55.820;37.490;2023-05-23T13:10:55;100029.38;;;18.92;72.68